Zim Ningbo — A8SI5 — position and weather

sailwx.info

Track history (hours):
 
Tides and Currents Weather Stations Pressure Air Temp Water Temp Dewpoint Dewpoint Depression Visibility Wind Speed Wind Dir Waves Ship Positions

Zim Ningbo

Last reported at 2017-Dec-14 10:47 UTC. Time now 2017-Dec-18 16:36 UTC.
Position N 40°24' W 073°29'.

Length 334 m; draft 9.7 m.

Type: Ship. MMSI: 636014219.

Date/timePositionNaut miles runAvg speedWind from/ knotsBaromVisibWave heightAir tempDewpointWater temp
2017-Dec-14 10:47N 40°24' W 073°29'3 9.8
2017-Dec-14 10:31N 40°25' W 073°33'5 9.7
2017-Dec-14 10:00N 40°25' W 073°39'5 9.6
2017-Dec-14 09:30N 40°26' W 073°45'5 9.2
2017-Dec-14 09:00N 40°28' W 073°51'5 9.4
2017-Dec-14 08:31N 40°30' W 073°56'713.1
2017-Dec-14 08:01N 40°35' W 074°02'5 9.7
2017-Dec-14 07:30N 40°39' W 074°06'2 4.9
2017-Dec-14 07:00N 40°39' W 074°09'1 2.5
2017-Dec-14 06:31N 40°40' W 074°08'0 0.0
2017-Dec-14 05:58N 40°40' W 074°08'0 0.0
2017-Dec-14 05:31N 40°40' W 074°08'0 0.0
2017-Dec-14 05:00N 40°40' W 074°08'0 0.0
2017-Dec-14 04:30N 40°40' W 074°08'0 0.0
2017-Dec-14 04:01N 40°40' W 074°08'0 0.0
2017-Dec-14 03:31N 40°40' W 074°08'0 0.0
2017-Dec-14 03:00N 40°40' W 074°08'0 0.0
2017-Dec-14 02:30N 40°40' W 074°08'0 0.0
2017-Dec-14 02:00N 40°40' W 074°08'0 0.0
2017-Dec-14 01:31N 40°40' W 074°08'0 0.0
2017-Dec-14 01:00N 40°40' W 074°08'0 0.0
2017-Dec-14 00:30N 40°40' W 074°08'0 0.0
2017-Dec-13 23:58N 40°40' W 074°08'0 0.1
2017-Dec-13 23:30N 40°40' W 074°08'0 0.0
2017-Dec-13 23:01N 40°40' W 074°08'0 0.0
2017-Dec-13 22:31N 40°40' W 074°08'0 0.0
2017-Dec-13 21:57N 40°40' W 074°08'0 0.0
2017-Dec-13 21:30N 40°40' W 074°08'0 0.0
2017-Dec-13 21:00N 40°40' W 074°08'0 0.0
2017-Dec-13 20:27N 40°40' W 074°08'0 0.0
2017-Dec-13 19:58N 40°40' W 074°08'0 0.0
2017-Dec-13 19:31N 40°40' W 074°08'0 0.0
2017-Dec-13 19:01N 40°40' W 074°08'0 0.0
2017-Dec-13 18:30N 40°40' W 074°08'0 0.0
2017-Dec-13 18:01N 40°40' W 074°08'0 0.0
2017-Dec-13 17:31N 40°40' W 074°08'0 0.0
2017-Dec-13 17:01N 40°40' W 074°08'0 0.1
2017-Dec-13 16:31N 40°40' W 074°08'0 0.0
2017-Dec-13 15:58N 40°40' W 074°08'0 0.0
2017-Dec-13 15:30N 40°40' W 074°08'0 0.0
2017-Dec-13 15:00N 40°40' W 074°08'0 0.0
2017-Dec-13 14:31N 40°40' W 074°08'0 0.0
2017-Dec-13 14:01N 40°40' W 074°08'0 0.1
2017-Dec-13 13:28N 40°40' W 074°08'0 0.0
2017-Dec-13 13:00N 40°40' W 074°08'0 0.0
2017-Dec-13 12:30N 40°40' W 074°08'0 0.1
2017-Dec-13 12:00N 40°40' W 074°08'1 1.0
2017-Dec-13 11:30N 40°40' W 074°08'1 2.8
2017-Dec-13 11:00N 40°39' W 074°08'3 5.5
2017-Dec-13 10:30N 40°39' W 074°04'4 7.4
2017-Dec-13 10:00N 40°35' W 074°02'4 7.5
2017-Dec-13 09:30N 40°32' W 074°01'4 7.9
2017-Dec-13 09:00N 40°30' W 073°56'4 7.3
2017-Dec-13 08:28N 40°28' W 073°52'4 8.2
2017-Dec-13 08:00N 40°27' W 073°47'4 7.0
2017-Dec-13 07:30N 40°23' W 073°47'5 9.0
2017-Dec-13 07:00N 40°19' W 073°46'3011.9
2017-Dec-13 04:26N 39°48' W 073°42'917.8
2017-Dec-13 03:55N 39°39' W 073°43'18917.4
2017-Dec-12 17:03N 36°52' W 075°33'113.3
2017-Dec-12 16:57N 36°51' W 075°35'5 9.7
2017-Dec-12 16:23N 36°49' W 075°41'4 9.5
2017-Dec-12 16:00N 36°49' W 075°46'5 9.5
2017-Dec-12 15:30N 36°51' W 075°51'5 9.5
2017-Dec-12 15:00N 36°54' W 075°55'5 9.0
2017-Dec-12 14:30N 36°57' W 076°00'714.2
2017-Dec-12 14:00N 36°59' W 076°08'814.8
2017-Dec-12 13:29N 36°60' W 076°18'4 9.0
2017-Dec-12 13:00N 36°56' W 076°20'0 0.2
2017-Dec-12 12:30N 36°56' W 076°20'0 0.0
2017-Dec-12 12:00N 36°56' W 076°20'0 0.0
2017-Dec-12 11:29N 36°56' W 076°20'0 0.0
2017-Dec-12 11:00N 36°56' W 076°20'0 0.0
2017-Dec-12 10:30N 36°56' W 076°20'0 0.0
2017-Dec-12 09:50N 36°56' W 076°20'0 0.0
2017-Dec-12 09:26N 36°56' W 076°20'0 0.0
2017-Dec-12 08:57N 36°56' W 076°20'0 0.0
2017-Dec-12 08:15N 36°56' W 076°20'0 0.1
2017-Dec-12 07:59N 36°56' W 076°20'0 0.0
2017-Dec-12 07:27N 36°56' W 076°20'0 0.0
2017-Dec-12 06:56N 36°56' W 076°20'0 0.0
2017-Dec-12 06:27N 36°56' W 076°20'0 0.0
2017-Dec-12 05:57N 36°56' W 076°20'0 0.0
2017-Dec-12 05:26N 36°56' W 076°20'0 0.0
2017-Dec-12 04:57N 36°56' W 076°20'0 0.0
2017-Dec-12 04:27N 36°56' W 076°20'0 0.0
2017-Dec-12 03:57N 36°56' W 076°20'0 0.0
2017-Dec-12 03:27N 36°56' W 076°20'0 0.0
2017-Dec-12 01:27N 36°56' W 076°20'0 0.0
2017-Dec-12 00:56N 36°56' W 076°20'0 0.0
2017-Dec-12 00:30N 36°56' W 076°20'1 2.5
2017-Dec-12 00:00N 36°57' W 076°20'4 8.1
2017-Dec-11 23:30N 37°00' W 076°17'713.4
2017-Dec-11 23:00N 36°59' W 076°09'815.6
2017-Dec-11 22:30N 36°57' W 075°60'4 8.9
2017-Dec-11 22:00N 36°55' W 075°55'5 9.0
2017-Dec-11 21:30N 36°52' W 075°51'5 9.3
2017-Dec-11 20:59N 36°50' W 075°45'2 4.9
2017-Dec-11 20:31N 36°49' W 075°43'2 3.5
2017-Dec-11 20:00N 36°50' W 075°44'1 2.1
2017-Dec-11 19:30N 36°49' W 075°45'5 9.2
2017-Dec-11 18:57N 36°45' W 075°40'14016.7
2017-Dec-11 10:35N 34°27' W 076°08'221.0
2017-Dec-11 10:30N 34°26' W 076°09'1621.4
2017-Dec-11 09:45N 34°15' W 076°23'242 5.2
2017-Dec-09 10:51N 31°56' W 080°20'3 9.1
2017-Dec-09 10:31N 31°56' W 080°24'5 9.3
2017-Dec-09 10:01N 31°56' W 080°29'5 9.6
2017-Dec-09 09:31N 31°56' W 080°35'5 9.6
2017-Dec-09 09:01N 31°56' W 080°40'611.1
2017-Dec-09 08:30N 31°59' W 080°46'714.1
2017-Dec-09 08:00N 32°02' W 080°53'611.8
2017-Dec-09 07:30N 32°05' W 080°59'4 8.1
2017-Dec-09 07:00N 32°05' W 081°04'3 5.9
2017-Dec-09 06:30N 32°06' W 081°07'2 4.0
2017-Dec-09 06:01N 32°08' W 081°08'0 0.2
2017-Dec-09 05:26N 32°08' W 081°08'0 0.0
2017-Dec-09 04:56N 32°08' W 081°08'0 0.0
2017-Dec-09 04:26N 32°08' W 081°08'0 0.0
2017-Dec-09 03:56N 32°08' W 081°08'0 0.0
2017-Dec-09 03:20N 32°08' W 081°08'0 0.0
2017-Dec-09 02:50N 32°08' W 081°08'0 0.0
2017-Dec-09 02:26N 32°08' W 081°08'0 0.0
2017-Dec-09 01:50N 32°08' W 081°08'0 0.0
2017-Dec-09 01:26N 32°08' W 081°08'0 0.0
2017-Dec-09 00:50N 32°08' W 081°08'0 0.0
2017-Dec-09 00:26N 32°08' W 081°08'0 0.0
2017-Dec-08 23:56N 32°08' W 081°08'0 0.0
2017-Dec-08 23:26N 32°08' W 081°08'0 0.0
2017-Dec-08 22:56N 32°08' W 081°08'0 0.0
2017-Dec-08 22:26N 32°08' W 081°08'0 0.1
2017-Dec-08 21:56N 32°08' W 081°08'0 0.0
2017-Dec-08 21:26N 32°08' W 081°08'0 0.0
2017-Dec-08 20:56N 32°08' W 081°08'0 0.0
2017-Dec-08 20:26N 32°08' W 081°08'0 0.0
2017-Dec-08 19:56N 32°08' W 081°08'0 0.0
2017-Dec-08 19:26N 32°08' W 081°08'0 0.0
2017-Dec-08 18:56N 32°08' W 081°08'0 0.0
2017-Dec-08 18:26N 32°08' W 081°08'0 0.0
2017-Dec-08 17:56N 32°08' W 081°08'0 0.0
2017-Dec-08 17:26N 32°08' W 081°08'0 0.0
2017-Dec-08 16:50N 32°08' W 081°08'0 0.0
2017-Dec-08 16:26N 32°08' W 081°08'0 0.0
2017-Dec-08 15:56N 32°08' W 081°08'0 0.0
2017-Dec-08 15:26N 32°08' W 081°08'0 0.0
2017-Dec-08 14:56N 32°08' W 081°08'0 0.0
2017-Dec-08 14:26N 32°08' W 081°08'0 0.0
2017-Dec-08 13:56N 32°08' W 081°08'0 0.0
2017-Dec-08 13:26N 32°08' W 081°08'0 0.0
2017-Dec-08 12:56N 32°08' W 081°08'0 0.0
2017-Dec-08 12:26N 32°08' W 081°08'0 0.0
2017-Dec-08 11:56N 32°08' W 081°08'0 0.0
2017-Dec-08 11:26N 32°08' W 081°08'0 0.0
2017-Dec-08 10:56N 32°08' W 081°08'0 0.0
2017-Dec-08 10:20N 32°08' W 081°08'0 0.0
2017-Dec-08 09:56N 32°08' W 081°08'0 0.0
2017-Dec-08 09:20N 32°08' W 081°08'0 0.0
2017-Dec-08 08:56N 32°08' W 081°08'0 0.0
2017-Dec-08 08:20N 32°08' W 081°08'0 0.0
2017-Dec-08 08:00N 32°08' W 081°08'1 1.4
2017-Dec-08 07:30N 32°07' W 081°08'3 5.7
2017-Dec-08 07:00N 32°05' W 081°06'4 7.6
2017-Dec-08 06:30N 32°05' W 081°01'5 9.6
2017-Dec-08 06:00N 32°03' W 080°56'611.2
2017-Dec-08 05:31N 32°02' W 080°50'714.2
2017-Dec-08 05:00N 31°58' W 080°43'4 8.0
2017-Dec-08 04:30N 31°57' W 080°38'5 9.5
2017-Dec-08 04:00N 31°57' W 080°33'6 9.6
2017-Dec-08 03:20N 31°57' W 080°25'4 9.6
2017-Dec-08 02:58N 31°57' W 080°21'0 0.3
2017-Dec-08 01:17N 31°57' W 080°21'0 0.0
2017-Dec-08 00:59N 31°57' W 080°21'0 0.0
2017-Dec-08 00:29N 31°57' W 080°21'0 0.0
2017-Dec-07 23:59N 31°57' W 080°21'0 0.0
2017-Dec-07 22:59N 31°57' W 080°21'0 0.0
2017-Dec-07 22:29N 31°57' W 080°21'0 0.0
2017-Dec-07 20:29N 31°57' W 080°21'0 0.0
2017-Dec-07 19:59N 31°57' W 080°21'0 0.0
2017-Dec-07 19:23N 31°57' W 080°21'0 0.0
2017-Dec-07 18:53N 31°57' W 080°21'0 0.0
2017-Dec-07 18:29N 31°57' W 080°21'0 0.0
2017-Dec-07 17:53N 31°57' W 080°21'0 0.0
2017-Dec-07 17:23N 31°57' W 080°21'0 0.0
2017-Dec-07 16:59N 31°57' W 080°21'0 0.0
2017-Dec-07 16:29N 31°57' W 080°21'0 0.1
2017-Dec-07 15:35N 31°57' W 080°21'0 0.0
2017-Dec-07 13:35N 31°57' W 080°21'0 0.1
2017-Dec-07 13:23N 31°57' W 080°21'0 0.0
2017-Dec-07 11:29N 31°57' W 080°21'0 0.0
2017-Dec-07 09:47N 31°57' W 080°21'0 0.1
2017-Dec-07 09:29N 31°57' W 080°21'0 0.1
2017-Dec-07 08:59N 31°57' W 080°21'0 0.0
2017-Dec-07 08:23N 31°57' W 080°21'0 0.0
2017-Dec-07 07:53N 31°57' W 080°21'0 0.1
2017-Dec-07 07:23N 31°57' W 080°21'0 0.0
2017-Dec-07 05:35N 31°57' W 080°21'0 0.2
2017-Dec-07 05:29N 31°57' W 080°21'0 0.1
2017-Dec-07 04:59N 31°57' W 080°21'0 0.0
2017-Dec-07 04:17N 31°57' W 080°21'0 0.0
2017-Dec-07 03:53N 31°57' W 080°21'0 0.0
2017-Dec-07 03:17N 31°57' W 080°21'0 0.2
2017-Dec-07 02:59N 31°57' W 080°21'0 0.2
2017-Dec-07 02:23N 31°57' W 080°21'0 0.0
2017-Dec-07 01:59N 31°57' W 080°21'0 0.1
2017-Dec-07 01:29N 31°57' W 080°21'0 0.0
2017-Dec-07 00:59N 31°57' W 080°21'0 0.0
2017-Dec-07 00:29N 31°57' W 080°21'0 0.0
2017-Dec-06 23:59N 31°57' W 080°21'0 0.1
2017-Dec-06 23:29N 31°57' W 080°21'0 0.0
2017-Dec-06 22:59N 31°57' W 080°21'0 0.1
2017-Dec-06 22:29N 31°57' W 080°21'0 0.2
2017-Dec-06 21:59N 31°57' W 080°21'  
Track history (hours):
 
Tides and Currents Weather Stations Pressure Air Temp Water Temp Dewpoint Dewpoint Depression Visibility Wind Speed Wind Dir Waves Ship Positions

Zim Ningbo

Last reported at 2017-Dec-14 10:47 UTC. Time now 2017-Dec-18 16:36 UTC.
Position N 40°24' W 073°29'.

Length 334 m; draft 9.7 m.

Type: Ship. MMSI: 636014219.

Date/timePositionNaut miles runAvg speedWind from/ knotsBaromVisibWave heightAir tempDewpointWater temp
2017-Dec-14 10:47N 40°24' W 073°29'3 9.8
2017-Dec-14 10:31N 40°25' W 073°33'5 9.7
2017-Dec-14 10:00N 40°25' W 073°39'5 9.6
2017-Dec-14 09:30N 40°26' W 073°45'5 9.2
2017-Dec-14 09:00N 40°28' W 073°51'5 9.4
2017-Dec-14 08:31N 40°30' W 073°56'713.1
2017-Dec-14 08:01N 40°35' W 074°02'5 9.7
2017-Dec-14 07:30N 40°39' W 074°06'2 4.9
2017-Dec-14 07:00N 40°39' W 074°09'1 2.5
2017-Dec-14 06:31N 40°40' W 074°08'0 0.0
2017-Dec-14 05:58N 40°40' W 074°08'0 0.0
2017-Dec-14 05:31N 40°40' W 074°08'0 0.0
2017-Dec-14 05:00N 40°40' W 074°08'0 0.0
2017-Dec-14 04:30N 40°40' W 074°08'0 0.0
2017-Dec-14 04:01N 40°40' W 074°08'0 0.0
2017-Dec-14 03:31N 40°40' W 074°08'0 0.0
2017-Dec-14 03:00N 40°40' W 074°08'0 0.0
2017-Dec-14 02:30N 40°40' W 074°08'0 0.0
2017-Dec-14 02:00N 40°40' W 074°08'0 0.0
2017-Dec-14 01:31N 40°40' W 074°08'0 0.0
2017-Dec-14 01:00N 40°40' W 074°08'0 0.0
2017-Dec-14 00:30N 40°40' W 074°08'0 0.0
2017-Dec-13 23:58N 40°40' W 074°08'0 0.1
2017-Dec-13 23:30N 40°40' W 074°08'0 0.0
2017-Dec-13 23:01N 40°40' W 074°08'0 0.0
2017-Dec-13 22:31N 40°40' W 074°08'0 0.0
2017-Dec-13 21:57N 40°40' W 074°08'0 0.0
2017-Dec-13 21:30N 40°40' W 074°08'0 0.0
2017-Dec-13 21:00N 40°40' W 074°08'0 0.0
2017-Dec-13 20:27N 40°40' W 074°08'0 0.0
2017-Dec-13 19:58N 40°40' W 074°08'0 0.0
2017-Dec-13 19:31N 40°40' W 074°08'0 0.0
2017-Dec-13 19:01N 40°40' W 074°08'0 0.0
2017-Dec-13 18:30N 40°40' W 074°08'0 0.0
2017-Dec-13 18:01N 40°40' W 074°08'0 0.0
2017-Dec-13 17:31N 40°40' W 074°08'0 0.0
2017-Dec-13 17:01N 40°40' W 074°08'0 0.1
2017-Dec-13 16:31N 40°40' W 074°08'0 0.0
2017-Dec-13 15:58N 40°40' W 074°08'0 0.0
2017-Dec-13 15:30N 40°40' W 074°08'0 0.0
2017-Dec-13 15:00N 40°40' W 074°08'0 0.0
2017-Dec-13 14:31N 40°40' W 074°08'0 0.0
2017-Dec-13 14:01N 40°40' W 074°08'0 0.1
2017-Dec-13 13:28N 40°40' W 074°08'0 0.0
2017-Dec-13 13:00N 40°40' W 074°08'0 0.0
2017-Dec-13 12:30N 40°40' W 074°08'0 0.1
2017-Dec-13 12:00N 40°40' W 074°08'1 1.0
2017-Dec-13 11:30N 40°40' W 074°08'1 2.8
2017-Dec-13 11:00N 40°39' W 074°08'3 5.5
2017-Dec-13 10:30N 40°39' W 074°04'4 7.4
2017-Dec-13 10:00N 40°35' W 074°02'4 7.5
2017-Dec-13 09:30N 40°32' W 074°01'4 7.9
2017-Dec-13 09:00N 40°30' W 073°56'4 7.3
2017-Dec-13 08:28N 40°28' W 073°52'4 8.2
2017-Dec-13 08:00N 40°27' W 073°47'4 7.0
2017-Dec-13 07:30N 40°23' W 073°47'5 9.0
2017-Dec-13 07:00N 40°19' W 073°46'3011.9
2017-Dec-13 04:26N 39°48' W 073°42'917.8
2017-Dec-13 03:55N 39°39' W 073°43'18917.4
2017-Dec-12 17:03N 36°52' W 075°33'113.3
2017-Dec-12 16:57N 36°51' W 075°35'5 9.7
2017-Dec-12 16:23N 36°49' W 075°41'4 9.5
2017-Dec-12 16:00N 36°49' W 075°46'5 9.5
2017-Dec-12 15:30N 36°51' W 075°51'5 9.5
2017-Dec-12 15:00N 36°54' W 075°55'5 9.0
2017-Dec-12 14:30N 36°57' W 076°00'714.2
2017-Dec-12 14:00N 36°59' W 076°08'814.8
2017-Dec-12 13:29N 36°60' W 076°18'4 9.0
2017-Dec-12 13:00N 36°56' W 076°20'0 0.2
2017-Dec-12 12:30N 36°56' W 076°20'0 0.0
2017-Dec-12 12:00N 36°56' W 076°20'0 0.0
2017-Dec-12 11:29N 36°56' W 076°20'0 0.0
2017-Dec-12 11:00N 36°56' W 076°20'0 0.0
2017-Dec-12 10:30N 36°56' W 076°20'0 0.0
2017-Dec-12 09:50N 36°56' W 076°20'0 0.0
2017-Dec-12 09:26N 36°56' W 076°20'0 0.0
2017-Dec-12 08:57N 36°56' W 076°20'0 0.0
2017-Dec-12 08:15N 36°56' W 076°20'0 0.1
2017-Dec-12 07:59N 36°56' W 076°20'0 0.0
2017-Dec-12 07:27N 36°56' W 076°20'0 0.0
2017-Dec-12 06:56N 36°56' W 076°20'0 0.0
2017-Dec-12 06:27N 36°56' W 076°20'0 0.0
2017-Dec-12 05:57N 36°56' W 076°20'0 0.0
2017-Dec-12 05:26N 36°56' W 076°20'0 0.0
2017-Dec-12 04:57N 36°56' W 076°20'0 0.0
2017-Dec-12 04:27N 36°56' W 076°20'0 0.0
2017-Dec-12 03:57N 36°56' W 076°20'0 0.0
2017-Dec-12 03:27N 36°56' W 076°20'0 0.0
2017-Dec-12 01:27N 36°56' W 076°20'0 0.0
2017-Dec-12 00:56N 36°56' W 076°20'0 0.0
2017-Dec-12 00:30N 36°56' W 076°20'1 2.5
2017-Dec-12 00:00N 36°57' W 076°20'4 8.1
2017-Dec-11 23:30N 37°00' W 076°17'713.4
2017-Dec-11 23:00N 36°59' W 076°09'815.6
2017-Dec-11 22:30N 36°57' W 075°60'4 8.9
2017-Dec-11 22:00N 36°55' W 075°55'5 9.0
2017-Dec-11 21:30N 36°52' W 075°51'5 9.3
2017-Dec-11 20:59N 36°50' W 075°45'2 4.9
2017-Dec-11 20:31N 36°49' W 075°43'2 3.5
2017-Dec-11 20:00N 36°50' W 075°44'1 2.1
2017-Dec-11 19:30N 36°49' W 075°45'5 9.2
2017-Dec-11 18:57N 36°45' W 075°40'14016.7
2017-Dec-11 10:35N 34°27' W 076°08'221.0
2017-Dec-11 10:30N 34°26' W 076°09'1621.4
2017-Dec-11 09:45N 34°15' W 076°23'242 5.2
2017-Dec-09 10:51N 31°56' W 080°20'3 9.1
2017-Dec-09 10:31N 31°56' W 080°24'5 9.3
2017-Dec-09 10:01N 31°56' W 080°29'5 9.6
2017-Dec-09 09:31N 31°56' W 080°35'5 9.6
2017-Dec-09 09:01N 31°56' W 080°40'611.1
2017-Dec-09 08:30N 31°59' W 080°46'714.1
2017-Dec-09 08:00N 32°02' W 080°53'611.8
2017-Dec-09 07:30N 32°05' W 080°59'4 8.1
2017-Dec-09 07:00N 32°05' W 081°04'3 5.9
2017-Dec-09 06:30N 32°06' W 081°07'2 4.0
2017-Dec-09 06:01N 32°08' W 081°08'0 0.2
2017-Dec-09 05:26N 32°08' W 081°08'0 0.0
2017-Dec-09 04:56N 32°08' W 081°08'0 0.0
2017-Dec-09 04:26N 32°08' W 081°08'0 0.0
2017-Dec-09 03:56N 32°08' W 081°08'0 0.0
2017-Dec-09 03:20N 32°08' W 081°08'0 0.0
2017-Dec-09 02:50N 32°08' W 081°08'0 0.0
2017-Dec-09 02:26N 32°08' W 081°08'0 0.0
2017-Dec-09 01:50N 32°08' W 081°08'0 0.0
2017-Dec-09 01:26N 32°08' W 081°08'0 0.0
2017-Dec-09 00:50N 32°08' W 081°08'0 0.0
2017-Dec-09 00:26N 32°08' W 081°08'0 0.0
2017-Dec-08 23:56N 32°08' W 081°08'0 0.0
2017-Dec-08 23:26N 32°08' W 081°08'0 0.0
2017-Dec-08 22:56N 32°08' W 081°08'0 0.0
2017-Dec-08 22:26N 32°08' W 081°08'0 0.1
2017-Dec-08 21:56N 32°08' W 081°08'0 0.0
2017-Dec-08 21:26N 32°08' W 081°08'0 0.0
2017-Dec-08 20:56N 32°08' W 081°08'0 0.0
2017-Dec-08 20:26N 32°08' W 081°08'0 0.0
2017-Dec-08 19:56N 32°08' W 081°08'0 0.0
2017-Dec-08 19:26N 32°08' W 081°08'0 0.0
2017-Dec-08 18:56N 32°08' W 081°08'0 0.0
2017-Dec-08 18:26N 32°08' W 081°08'0 0.0
2017-Dec-08 17:56N 32°08' W 081°08'0 0.0
2017-Dec-08 17:26N 32°08' W 081°08'0 0.0
2017-Dec-08 16:50N 32°08' W 081°08'0 0.0
2017-Dec-08 16:26N 32°08' W 081°08'0 0.0
2017-Dec-08 15:56N 32°08' W 081°08'0 0.0
2017-Dec-08 15:26N 32°08' W 081°08'0 0.0
2017-Dec-08 14:56N 32°08' W 081°08'0 0.0
2017-Dec-08 14:26N 32°08' W 081°08'0 0.0
2017-Dec-08 13:56N 32°08' W 081°08'0 0.0
2017-Dec-08 13:26N 32°08' W 081°08'0 0.0
2017-Dec-08 12:56N 32°08' W 081°08'0 0.0
2017-Dec-08 12:26N 32°08' W 081°08'0 0.0
2017-Dec-08 11:56N 32°08' W 081°08'0 0.0
2017-Dec-08 11:26N 32°08' W 081°08'0 0.0
2017-Dec-08 10:56N 32°08' W 081°08'0 0.0
2017-Dec-08 10:20N 32°08' W 081°08'0 0.0
2017-Dec-08 09:56N 32°08' W 081°08'0 0.0
2017-Dec-08 09:20N 32°08' W 081°08'0 0.0
2017-Dec-08 08:56N 32°08' W 081°08'0 0.0
2017-Dec-08 08:20N 32°08' W 081°08'0 0.0
2017-Dec-08 08:00N 32°08' W 081°08'1 1.4
2017-Dec-08 07:30N 32°07' W 081°08'3 5.7
2017-Dec-08 07:00N 32°05' W 081°06'4 7.6
2017-Dec-08 06:30N 32°05' W 081°01'5 9.6
2017-Dec-08 06:00N 32°03' W 080°56'611.2
2017-Dec-08 05:31N 32°02' W 080°50'714.2
2017-Dec-08 05:00N 31°58' W 080°43'4 8.0
2017-Dec-08 04:30N 31°57' W 080°38'5 9.5
2017-Dec-08 04:00N 31°57' W 080°33'6 9.6
2017-Dec-08 03:20N 31°57' W 080°25'4 9.6
2017-Dec-08 02:58N 31°57' W 080°21'0 0.3
2017-Dec-08 01:17N 31°57' W 080°21'0 0.0
2017-Dec-08 00:59N 31°57' W 080°21'0 0.0
2017-Dec-08 00:29N 31°57' W 080°21'0 0.0
2017-Dec-07 23:59N 31°57' W 080°21'0 0.0
2017-Dec-07 22:59N 31°57' W 080°21'0 0.0
2017-Dec-07 22:29N 31°57' W 080°21'0 0.0
2017-Dec-07 20:29N 31°57' W 080°21'0 0.0
2017-Dec-07 19:59N 31°57' W 080°21'0 0.0
2017-Dec-07 19:23N 31°57' W 080°21'0 0.0
2017-Dec-07 18:53N 31°57' W 080°21'0 0.0
2017-Dec-07 18:29N 31°57' W 080°21'0 0.0
2017-Dec-07 17:53N 31°57' W 080°21'0 0.0
2017-Dec-07 17:23N 31°57' W 080°21'0 0.0
2017-Dec-07 16:59N 31°57' W 080°21'0 0.0
2017-Dec-07 16:29N 31°57' W 080°21'0 0.1
2017-Dec-07 15:35N 31°57' W 080°21'0 0.0
2017-Dec-07 13:35N 31°57' W 080°21'0 0.1
2017-Dec-07 13:23N 31°57' W 080°21'0 0.0
2017-Dec-07 11:29N 31°57' W 080°21'0 0.0
2017-Dec-07 09:47N 31°57' W 080°21'0 0.1
2017-Dec-07 09:29N 31°57' W 080°21'0 0.1
2017-Dec-07 08:59N 31°57' W 080°21'0 0.0
2017-Dec-07 08:23N 31°57' W 080°21'0 0.0
2017-Dec-07 07:53N 31°57' W 080°21'0 0.1
2017-Dec-07 07:23N 31°57' W 080°21'0 0.0
2017-Dec-07 05:35N 31°57' W 080°21'0 0.2
2017-Dec-07 05:29N 31°57' W 080°21'0 0.1
2017-Dec-07 04:59N 31°57' W 080°21'0 0.0
2017-Dec-07 04:17N 31°57' W 080°21'0 0.0
2017-Dec-07 03:53N 31°57' W 080°21'0 0.0
2017-Dec-07 03:17N 31°57' W 080°21'0 0.2
2017-Dec-07 02:59N 31°57' W 080°21'0 0.2
2017-Dec-07 02:23N 31°57' W 080°21'0 0.0
2017-Dec-07 01:59N 31°57' W 080°21'0 0.1
2017-Dec-07 01:29N 31°57' W 080°21'0 0.0
2017-Dec-07 00:59N 31°57' W 080°21'0 0.0
2017-Dec-07 00:29N 31°57' W 080°21'0 0.0
2017-Dec-06 23:59N 31°57' W 080°21'0 0.1
2017-Dec-06 23:29N 31°57' W 080°21'0 0.0
2017-Dec-06 22:59N 31°57' W 080°21'0 0.1
2017-Dec-06 22:29N 31°57' W 080°21'0 0.2
2017-Dec-06 21:59N 31°57' W 080°21'  

Dump ship's entire track history